Aeroporto :
LOGIN :

Iscrizione | Disclaimer

   EN    FR    IT 

 










Sommario :    VFR   VFR Marginale   IFR   IFR Intensivo   IFR Molto Intensivo
Visibilità : 
Base nubi : 
>= 8 km
>= 3000ft
5 / 8 km
1000 / 3000 ft
1500m / 5 km
500 / 1000 ft
800 / 1500m
200 / 500 ft
< 800m
< 200 ft
Simboli :   Temporali  Nebbia  Neve Forte  Precipitazioni Forti  Vento > 20 kt
SIGMETs :   Varie  Temporali  Ghiacco  Turbolenza  Onda orograficha  Ceneri Vulcaniche







- Altitudine del aeroporto : 527 ft
- Codice IATA : DBV


LDDU - Dubrovnik

ULTIMO METAR :
  • 161330Z 26006KT 200V310 CAVOK 28/22 Q1012 NOSIG

METARs OBSOLETI :
  • 161300Z 29006KT 240V340 CAVOK 28/22 Q1012 NOSIG
  • 161230Z 24005KT 190V300 CAVOK 28/21 Q1012 NOSIG
  • 161200Z 23006KT 170V300 CAVOK 28/22 Q1013 NOSIG
  • 161130Z 19008KT 160V230 CAVOK 29/17 Q1012 NOSIG
  • 161100Z 18007KT 120V210 CAVOK 29/18 Q1013 NOSIG

TAF TAF LDDU
Valido dal 16 a 12 ore il 17 a 12 ore UTC


161125Z 1612/1712 19008KT 9999 FEW060 TX30/1612Z TN22/1703Z
PROB30
TEMPO 1613/1615 26009KT FEW045CB FEW050TCU
PROB40
TEMPO 1709/1712 VRB15G25KT 5000 -TSRA FEW040CB BKN045
Nessun NOTAM noto per questo aeroporto.



MetMap, La meteo Aeronautica in un colpo d'occhio ! - Copyright ORBIFLY Dicembre 2007 - Disclaimer

ORBIFLY MET'MAP TEAM :

Programmazione e sviluppo : Alexandra Zaïnal
Concezione e sviluppo : Baudouin d'Aumeries
Co-Programmazione e sviluppo : Marc-Olivier Méhu
Supporto tecnico e logistico : Manuel Goepfert
Aiuto per la traduzione : Arnaldo La Scala

Contatto : metmap@orbifly.com




FONTI E CREDITI :

   NOAA